Tiempo atmosférico en la estación meteorológica de Pedraza de Alba, Salamanca (897 m.)



Fecha
DESCASC
Temp. máxima en grados centígrados (hora)
DESCASC
Temp. mínima en grados centígrados (hora)
DESCASC
Temp. media en grados centígrados
DESCASC
Racha de viento máxima en m/sg (hora)
DESCASC
Velocidad máxima media en intervalos de 10 minutos(hora)
DESCASC
Precipitaciones diarias en mm
DESCASC
Precipitaciones de 00:00 a 06:00 en mm
DESCASC
Precipitaciones de 06:00 a 12:00 en mm
DESCASC
Precipitaciones de 12:00 a 18:00 en mm
DESCASC
Precipitaciones de 18:00 a 24:00 en mm
DESCASC
20-09-2018 28.5 (15:00) 11.9 (08:00) 20.2 11.39 (16:30) 5.83 (16:30) 2.2 0 0 2.2 0
19-09-2018 28.9 (17:10) 11.9 (07:10) 20.4 5.83 (13:20) 3.33 (20:00) 0 0 0 0 0
18-09-2018 27.3 (15:40) 13.6 (08:20) 20.4 11.67 (16:50) 6.11 (16:40) 0 0 0 0 0
17-09-2018 29.2 (15:50) 13.9 (08:20) 21.6 11.67 (17:20) 4.44 (18:30) 0 0 0 0 0
16-09-2018 28.9 (16:20) 13.3 (00:00) 21.1 6.39 (17:20) 3.06 (11:20) 0 0 0 0 0
15-09-2018 28.7 (18:20) 12.7 (00:00) 20.7 6.39 (16:10) 3.33 (02:10) 0 0 0 0 0
14-09-2018 29.1 (16:00) 12.3 (00:00) 20.7 6.39 (15:00) 3.61 (18:20) 0 0 0 0 0
13-09-2018 29.5 (15:20) 12.7 (00:00) 21.1 5.83 (17:20) 3.33 (17:20) 0 0 0 0 0
12-09-2018 28.4 (16:40) 12.7 (00:00) 20.5 5.56 (14:50) 3.33 (17:00) 0 0 0 0 0
11-09-2018 27.8 (17:40) 11.6 (00:00) 19.7 7.5 (14:40) 3.89 (14:40) 0 0 0 0 0
10-09-2018 25.8 (17:20) 9.9 (00:00) 17.8 6.67 (17:50) 3.61 (17:50) 0 0 0 0 0
09-09-2018 25 (17:20) 10.4 (00:00) 17.7 14.72 (00:20) 7.22 (00:20) 5.2 5.2 0 0 0
08-09-2018 24.6 (17:00) 13 (00:00) 18.8 10 (23:50) 5.28 (23:59) 29 0.2 4 0 24.8
07-09-2018 25.8 (16:20) 11.3 (00:00) 18.5 8.89 (19:50) 4.17 (19:30) 0 0 0 0 0
06-09-2018 23.7 (17:00) 14.1 (00:00) 18.9 7.5 (17:20) 3.61 (18:20) 0.4 0.2 0 0 0.2
05-09-2018 23.9 (16:10) 12.2 (00:00) 18 10 (18:20) 5 (18:00) 0 0 0 0 0
04-09-2018 26.9 (17:00) 12.5 (00:00) 19.7 8.61 (17:20) 4.72 (17:30) 2.2 0 0 0 2.2
03-09-2018 28.5 (17:10) 15.4 (00:00) 21.9 14.44 (00:20) 6.67 (00:20) 23.4 1.2 0.2 0 22
02-09-2018 33.2 (16:50) 14.4 (00:00) 23.8 10.28 (17:00) 6.39 (17:00) 0 0 0 0 0
01-09-2018 31.7 (17:10) 11.3 (00:00) 21.5 7.22 (16:40) 3.89 (17:10) 0 0 0 0 0
31-08-2018 30.5 (17:40) 10.4 (00:00) 20.4 7.22 (18:50) 4.17 (18:50) 0 0 0 0 0
30-08-2018 29.9 (17:10) 10 (00:00) 19.9 6.67 (15:40) 4.17 (19:10) 0 0 0 0 0
29-08-2018 28.1 (17:20) 11.9 (00:00) 20 7.22 (17:40) 3.89 (19:20) 0 0 0 0 0
28-08-2018 29.4 (15:10) 15.6 (00:00) 22.5 12.22 (16:00) 5.83 (16:00) 0 0 0 0 0
27-08-2018 32.9 (16:00) 10.4 (00:00) 21.7 17.22 (18:00) 6.39 (18:00) 0 0 0 0 0
26-08-2018 30.4 (18:10) 8.6 (00:00) 19.5 8.33 (16:20) 4.44 (17:20) 0 0 0 0 0
25-08-2018 27.2 (17:00) 8.4 (00:00) 17.8 6.67 (17:50) 3.61 (17:50) 0 0 0 0 0
24-08-2018 29.2 (18:30) 10.2 (00:00) 19.7 10.83 (17:30) 3.61 (13:20) 0 0 0 0 0
23-08-2018 31.4 (17:20) 14.1 (00:00) 22.8 8.89 (17:10) 4.72 (15:40) 0 0 0 0 0

Gráficas

Temp. máximas Temp. mínimas Temp. medias Precipitaciones Rachas de viento máximas Velocidades máximas media en intervalos de 10 minutos

Datos horarios

Fecha y hora oficial Temperatura (ºC) Velocidad del viento (km/h) Dirección del viento Racha (km/h) Dirección de racha Precipitación (mm) Presión (hPa) Tendencia (hPa) Humedad (%)
2018-09-21 23:00:00 15.6 3 Sur 6 Sur 0 -- -- 71
2018-09-21 22:00:00 17.1 3 Sur 6 Sur 0 -- -- 65
2018-09-21 21:00:00 21.3 0 Calma 8 Norte 0 -- -- 49
2018-09-21 20:00:00 23.8 3 Norte 12 Norte 0 -- -- 40
2018-09-21 19:00:00 25.3 6 Norte 19 Norte 0 -- -- 37
2018-09-21 18:00:00 26.3 13 Norte 22 Norte 0 -- -- 35
2018-09-21 17:00:00 26.6 9 Norte 24 Norte 0 -- -- 34
2018-09-21 16:00:00 26.4 8 Norte 17 Norte 0 -- -- 35
2018-09-21 15:00:00 25.8 6 Nordeste 16 Noroeste 0 -- -- 35
2018-09-21 14:00:00 24.9 7 Norte 14 Norte 0 -- -- 38
2018-09-21 13:00:00 23.4 6 Norte 13 Norte 0 -- -- 41
2018-09-21 12:00:00 21.9 3 Norte 8 Nordeste 0 -- -- 47
2018-09-21 11:00:00 19.9 0 Calma 6 Sudeste 0 -- -- 54
2018-09-21 10:00:00 16.5 4 Sudeste 8 Sudeste 0 -- -- 70
2018-09-21 09:00:00 11.9 0 Calma 5 Sur 0 -- -- 87
2018-09-21 08:00:00 11 3 Sur 5 Sudeste 0 -- -- 87
2018-09-21 07:00:00 12.2 3 Sudoeste 8 Sur 0 -- -- 82
2018-09-21 06:00:00 12 4 Sur 8 Sur 0 -- -- 84
2018-09-21 05:00:00 12.6 0 Calma 5 Sudeste 0 -- -- 83
2018-09-21 04:00:00 13.9 3 Sur 6 Sur 0 -- -- 79
2018-09-21 03:00:00 14.5 5 Sur 9 Sur 0 -- -- 76
2018-09-21 02:00:00 15.2 4 Sur 8 Sur 0 -- -- 76
2018-09-21 01:00:00 16.3 3 Sur 8 Sudoeste 0 -- -- 73
2018-09-21 00:00:00 18 5 Sudoeste 8 Sudoeste 0 -- -- 68
2018-09-20 23:00:00 20.8 5 Oeste 19 Oeste 0 -- -- 56
2018-09-20 22:00:00 19.3 4 Sur 8 Sur 0 -- -- 67
2018-09-20 21:00:00 21.6 3 Sur 12 Sur 0 -- -- 57
2018-09-20 20:00:00 24.6 8 Sur 14 Sur 0 -- -- 46
2018-09-20 19:00:00 26.1 9 Sur 23 Sur 0 -- -- 42
2018-09-20 18:00:00 25.3 12 Sur 21 Sudeste 0 -- -- 45
2018-09-20 17:00:00 21.4 7 Sur 41 Sur 2.2 -- -- 73
2018-09-20 16:00:00 28.1 10 Sudoeste 23 Sudoeste 0 -- -- 35
2018-09-20 15:00:00 28.5 9 Oeste 24 Sudoeste 0 -- -- 33
2018-09-20 14:00:00 28.3 9 Sudoeste 22 Oeste 0 -- -- 33
2018-09-20 13:00:00 26.6 10 Oeste 21 Oeste 0 -- -- 36
2018-09-20 12:00:00 26.9 7 Oeste 16 Oeste 0 -- -- 36
2018-09-20 11:00:00 23.8 3 Norte 5 Norte 0 -- -- 49
2018-09-20 10:00:00 18.9 2 Norte 4 Sur 0 -- -- 67
2018-09-20 09:00:00 13.6 0 Calma 6 Sudeste 0 -- -- 83
2018-09-20 08:00:00 11.9 2 Sur 5 Sur 0 -- -- 83
2018-09-20 07:00:00 12.7 0 Calma 7 Sudeste 0 -- -- 80
2018-09-20 06:00:00 12.8 5 Sudeste 6 Sur 0 -- -- 81
2018-09-20 05:00:00 13.3 3 Sur 6 Sudeste 0 -- -- 79
2018-09-20 04:00:00 14.9 0 Calma 9 Sur 0 -- -- 71
2018-09-20 03:00:00 16.3 3 Sur 10 Sur 0 -- -- 67
2018-09-20 02:00:00 16.8 4 Sur 8 Sur 0 -- -- 65
2018-09-20 01:00:00 18.1 4 Sur 10 Sur 0 -- -- 61
2018-09-20 00:00:00 18.5 3 Sudeste 9 Sur 0 -- -- 59
2018-09-19 23:00:00 19.6 4 Sur 9 Sudoeste 0 -- -- 53
2018-09-19 22:00:00 22.1 6 Sudoeste 13 Sudoeste 0 -- -- 45
2018-09-19 21:00:00 24 6 Sudoeste 18 Sudoeste 0 -- -- 42
2018-09-19 20:00:00 26.6 12 Sudoeste 20 Sudoeste 0 -- -- 33
2018-09-19 19:00:00 27.8 11 Oeste 21 Oeste 0 -- -- 32
2018-09-19 18:00:00 28.1 6 Sudoeste 19 Oeste 0 -- -- 33
2018-09-19 17:00:00 28.5 6 Oeste 18 Sudoeste 0 -- -- 32
2018-09-19 16:00:00 28.4 7 Sudoeste 19 Noroeste 0 -- -- 33
2018-09-19 15:00:00 28 5 Sur 21 Sudoeste 0 -- -- 33
2018-09-19 14:00:00 26.6 8 Oeste 21 Oeste 0 -- -- 37
2018-09-19 13:00:00 26 8 Oeste 19 Noroeste 0 -- -- 40
2018-09-19 12:00:00 25.3 10 Noroeste 21 Noroeste 0 -- -- 42
2018-09-19 11:00:00 22.9 3 Norte 5 Nordeste 0 -- -- 54
2018-09-19 10:00:00 18.2 2 Norte 5 Norte 0 -- -- 70
2018-09-19 09:00:00 13.9 0 Calma 6 Sudeste 0 -- -- 86
2018-09-19 08:00:00 11.9 5 Sudeste 6 Sudeste 0 -- -- 89
2018-09-19 07:00:00 12 4 Sur 6 Sur 0 -- -- 88
2018-09-19 06:00:00 12.8 0 Calma 3 Sudoeste 0 -- -- 85
2018-09-19 05:00:00 14.1 0 Calma 7 Sur 0 -- -- 82
2018-09-19 04:00:00 14.7 4 Sur 8 Sur 0 -- -- 80
2018-09-19 03:00:00 14.3 2 Sur 6 Sudeste 0 -- -- 81
2018-09-19 02:00:00 15.2 3 Sur 7 Oeste 0 -- -- 78
2018-09-19 01:00:00 15.5 5 Noroeste 14 Noroeste 0 -- -- 76
2018-09-19 00:00:00 16.4 4 Sudoeste 6 Sudoeste 0 -- -- 68
2018-09-18 23:00:00 18.4 3 Sur 13 Sur 0 -- -- 61
2018-09-18 22:00:00 18.1 4 Sur 8 Sur 0 -- -- 62
2018-09-18 21:00:00 19.7 5 Sur 10 Sur 0 -- -- 58
2018-09-18 20:00:00 22.7 5 Sudeste 15 Sur 0 -- -- 47
2018-09-18 19:00:00 24.2 8 Sur 28 Sudeste 0 -- -- 48
2018-09-18 18:00:00 22.9 14 Sur 35 Sudeste 0 -- -- 49
2018-09-18 17:00:00 22.2 15 Sudeste 42 Este 0 -- -- 49
2018-09-18 16:00:00 26.5 10 Oeste 31 Noroeste 0 -- -- 40
2018-09-18 15:00:00 26.2 8 Oeste 19 Oeste 0 -- -- 40
2018-09-18 14:00:00 26.3 9 Oeste 18 Oeste 0 -- -- 39
2018-09-18 13:00:00 25.5 3 Noroeste 10 Noroeste 0 -- -- 42
2018-09-18 12:00:00 24.1 2 Oeste 12 Oeste 0 -- -- 43
2018-09-18 11:00:00 22.4 7 Oeste 13 Oeste 0 -- -- 49
2018-09-18 10:00:00 20.2 4 Sudoeste 10 Sudoeste 0 -- -- 59
2018-09-18 09:00:00 15.4 3 Sur 7 Sur 0 -- -- 78
2018-09-18 08:00:00 13.7 3 Sur 9 Sur 0 -- -- 81
2018-09-18 07:00:00 14.1 4 Sur 8 Sudeste 0 -- -- 79
2018-09-18 06:00:00 15 5 Sur 8 Sur 0 -- -- 76
2018-09-18 05:00:00 15.6 5 Sur 8 Sur 0 -- -- 74
2018-09-18 04:00:00 15 4 Sur 9 Sur 0 -- -- 75
2018-09-18 03:00:00 15.5 4 Sur 10 Sur 0 -- -- 73
2018-09-18 02:00:00 16 6 Sur 10 Sudeste 0 -- -- 70
2018-09-18 01:00:00 15.8 5 Sudeste 10 Sudeste 0 -- -- 71
2018-09-18 00:00:00 16.8 4 Sur 8 Sudeste 0 -- -- 66
2018-09-17 23:00:00 17.5 4 Sur 7 Sur 0 -- -- 65
2018-09-17 22:00:00 20.4 3 Sudoeste 6 Noroeste 0 -- -- 54
2018-09-17 21:00:00 23 5 Noroeste 18 Noroeste 0 -- -- 46
2018-09-17 20:00:00 24.6 5 Sur 21 Sudeste 0 -- -- 40
2018-09-17 19:00:00 25.8 12 Sur 29 Sur 0 -- -- 37
2018-09-17 18:00:00 25.7 13 Sur 42 Sudoeste 0 -- -- 36
2018-09-17 17:00:00 28.7 12 Sudoeste 24 Sudoeste 0 -- -- 30
2018-09-17 16:00:00 28.8 10 Oeste 21 Sudoeste 0 -- -- 29
2018-09-17 15:00:00 28.8 9 Sur 20 Sudoeste 0 -- -- 28
2018-09-17 14:00:00 27.2 10 Oeste 21 Sudoeste 0 -- -- 32
2018-09-17 13:00:00 27.9 9 Sudeste 20 Sudoeste 0 -- -- 31
2018-09-17 12:00:00 27.1 8 Sur 18 Sur 0 -- -- 33
2018-09-17 11:00:00 26.2 10 Sudeste 19 Sudeste 0 -- -- 35
2018-09-17 10:00:00 22.1 5 Este 13 Sudeste 0 -- -- 49
2018-09-17 09:00:00 15.1 0 Calma 3 Noroeste 0 -- -- 77
2018-09-17 08:00:00 14.1 2 Sur 6 Sudeste 0 -- -- 77
2018-09-17 07:00:00 14.6 2 Sur 8 Sur 0 -- -- 75
2018-09-17 06:00:00 15.1 4 Sur 8 Sur 0 -- -- 74
2018-09-17 05:00:00 16 5 Sur 8 Sur 0 -- -- 70
2018-09-17 04:00:00 16.6 4 Sur 9 Sur 0 -- -- 68
2018-09-17 03:00:00 16.8 6 Sur 9 Sur 0 -- -- 68
2018-09-17 02:00:00 16.7 4 Sur 7 Sur 0 -- -- 68
2018-09-17 01:00:00 17.9 3 Sur 7 Sur 0 -- -- 63
2018-09-17 00:00:00 19.3 3 Sur 6 Sudeste 0 -- -- 58
2018-09-16 23:00:00 20.8 4 Sur 7 Sudeste 0 -- -- 53
2018-09-16 22:00:00 22.2 4 Sur 15 Sudoeste 0 -- -- 50
2018-09-16 21:00:00 24.3 6 Sudoeste 13 Sudoeste 0 -- -- 42
2018-09-16 20:00:00 26.2 2 Sudoeste 12 Noroeste 0 -- -- 35
2018-09-16 19:00:00 27.5 8 Noroeste 21 Oeste 0 -- -- 28
2018-09-16 18:00:00 28.5 9 Noroeste 23 Norte 0 -- -- 29
2018-09-16 17:00:00 28.5 10 Norte 21 Noroeste 0 -- -- 31
2018-09-16 16:00:00 28.1 5 Nordeste 16 Noroeste 0 -- -- 30
2018-09-16 15:00:00 28.3 5 Noroeste 18 Este 0 -- -- 30
2018-09-16 14:00:00 27 7 Norte 14 Noroeste 0 -- -- 34
2018-09-16 13:00:00 26.5 4 Noroeste 16 Noroeste 0 -- -- 42
2018-09-16 12:00:00 25.1 9 Oeste 18 Oeste 0 -- -- 43
2018-09-16 11:00:00 23.6 9 Sudoeste 18 Sudoeste 0 -- -- 47
2018-09-16 10:00:00 21 6 Sudoeste 12 Sudoeste 0 -- -- 54
2018-09-16 09:00:00 16.1 5 Sur 8 Sur 0 -- -- 72
2018-09-16 08:00:00 14.1 5 Sur 6 Sur 0 -- -- 76
2018-09-16 07:00:00 13.3 0 Calma 6 Sudeste 0 -- -- 78
2018-09-16 06:00:00 14.5 2 Sudeste 7 Sur 0 -- -- 72
2018-09-16 05:00:00 15.4 3 Sur 8 Sudeste 0 -- -- 68
2018-09-16 04:00:00 15.7 3 Sur 6 Sudeste 0 -- -- 65
2018-09-16 03:00:00 16.4 4 Sur 9 Sur 0 -- -- 63
2018-09-16 02:00:00 16.8 6 Sur 10 Sur 0 -- -- 65
2018-09-16 01:00:00 17.1 4 Sur 7 Sur 0 -- -- 67
2018-09-16 00:00:00 17.4 3 Sur 9 Sur 0 -- -- 67
2018-09-15 23:00:00 18 5 Sudeste 10 Sur 0 -- -- 65
2018-09-15 22:00:00 19.3 3 Sur 8 Sudoeste 0 -- -- 61
2018-09-15 21:00:00 21.2 4 Sur 8 Sur 0 -- -- 55
2018-09-15 20:00:00 23.6 4 Sur 17 Sur 0 -- -- 47
2018-09-15 19:00:00 26.1 6 Sur 19 Sur 0 -- -- 39
2018-09-15 18:00:00 28 8 Noroeste 21 Norte 0 -- -- 28
2018-09-15 17:00:00 28 6 Norte 23 Norte 0 -- -- 29
2018-09-15 16:00:00 28.4 6 Norte 21 Nordeste 0 -- -- 32
2018-09-15 15:00:00 27.5 8 Norte 21 Norte 0 -- -- 38
2018-09-15 14:00:00 26 9 Norte 15 Norte 0 -- -- 44
2018-09-15 13:00:00 23.9 6 Norte 12 Norte 0 -- -- 49
2018-09-15 12:00:00 21.8 3 Noroeste 9 Norte 0 -- -- 55
2018-09-15 11:00:00 19.4 5 Norte 13 Norte 0 -- -- 65
2018-09-15 10:00:00 17.5 0 Calma 4 Norte 0 -- -- 71
2018-09-15 09:00:00 13.8 0 Calma 4 Sudeste 0 -- -- 85
2018-09-15 08:00:00 12.9 3 Sur 6 Sur 0 -- -- 86
2018-09-15 07:00:00 13.1 3 Sur 6 Sudeste 0 -- -- 86
2018-09-15 06:00:00 14.1 3 Sur 5 Sur 0 -- -- 83
2018-09-15 05:00:00 16.1 3 Sudoeste 6 Sudoeste 0 -- -- 77
2018-09-15 04:00:00 16.7 6 Sur 11 Sur 0 -- -- 76
2018-09-15 03:00:00 17.8 10 Sudoeste 21 Sudoeste 0 -- -- 70
2018-09-15 02:00:00 15.5 3 Sudoeste 8 Sudoeste 0 -- -- 75
2018-09-15 01:00:00 17 4 Sur 7 Sur 0 -- -- 70
2018-09-15 00:00:00 18.3 3 Sudeste 8 Sur 0 -- -- 66
2018-09-14 23:00:00 20.1 4 Sur 9 Sudeste 0 -- -- 60
2018-09-14 22:00:00 20.4 6 Sur 9 Sur 0 -- -- 60
2018-09-14 21:00:00 22.6 0 Calma 10 Oeste 0 -- -- 51
2018-09-14 20:00:00 24.7 8 Sudoeste 18 Sudoeste 0 -- -- 42
2018-09-14 19:00:00 25.8 8 Sudoeste 22 Sudoeste 0 -- -- 40
2018-09-14 18:00:00 27.5 6 Oeste 14 Sudoeste 0 -- -- 34
2018-09-14 17:00:00 28.2 5 Nordeste 18 Norte 0 -- -- 30
2018-09-14 16:00:00 29.1 5 Nordeste 18 Norte 0 -- -- 30
2018-09-14 15:00:00 28.3 10 Norte 23 Norte 0 -- -- 31
2018-09-14 14:00:00 28.2 9 Norte 21 Norte 0 -- -- 32
2018-09-14 13:00:00 26.9 9 Norte 18 Norte 0 -- -- 37
2018-09-14 12:00:00 24.3 7 Norte 13 Norte 0 -- -- 50
2018-09-14 11:00:00 22 3 Norte 6 Norte 0 -- -- 55
2018-09-14 10:00:00 18.6 0 Calma 3 Nordeste 0 -- -- 68
2018-09-14 09:00:00 14 0 Calma 4 Sudeste 0 -- -- 87
2018-09-14 08:00:00 12.3 3 Sur 6 Sudeste 0 -- -- 87
2018-09-14 07:00:00 12.5 3 Sur 5 Sudeste 0 -- -- 86
2018-09-14 06:00:00 13.4 0 Calma 5 Sur 0 -- -- 84
2018-09-14 05:00:00 13.8 3 Sur 5 Sur 0 -- -- 80
2018-09-14 04:00:00 14.5 3 Sur 6 Sur 0 -- -- 78
2018-09-14 03:00:00 15 2 Sudoeste 6 Noroeste 0 -- -- 76
2018-09-14 02:00:00 15.1 4 Sur 5 Sudeste 0 -- -- 77
2018-09-14 01:00:00 16.5 0 Calma 7 Oeste 0 -- -- 74
2018-09-14 00:00:00 17 0 Calma 5 Sur 0 -- -- 70
2018-09-13 23:00:00 17.7 3 Sur 5 Sur 0 -- -- 68
2018-09-13 22:00:00 20.1 0 Calma 6 Sudeste 0 -- -- 61
2018-09-13 21:00:00 23.5 0 Calma 5 Norte 0 -- -- 48
2018-09-13 20:00:00 26.9 5 Norte 8 Norte 0 -- -- 36
2018-09-13 19:00:00 28.5 7 Noroeste 13 Noroeste 0 -- -- 31
2018-09-13 18:00:00 29 6 Nordeste 21 Norte 0 -- -- 30
2018-09-13 17:00:00 29.5 8 Noroeste 18 Norte 0 -- -- 30
2018-09-13 16:00:00 29.4 7 Noroeste 15 Noroeste 0 -- -- 29
2018-09-13 15:00:00 29 9 Norte 19 Norte 0 -- -- 29
2018-09-13 14:00:00 28.3 3 Norte 15 Oeste 0 -- -- 31
2018-09-13 13:00:00 27.6 7 Nordeste 13 Nordeste 0 -- -- 35
2018-09-13 12:00:00 26.7 4 Norte 8 Sudeste 0 -- -- 36
2018-09-13 11:00:00 24.5 2 Sudoeste 5 Norte 0 -- -- 46
2018-09-13 10:00:00 20.3 0 Calma 3 Sudeste 0 -- -- 61
2018-09-13 09:00:00 14.4 0 Calma 4 Sur 0 -- -- 87
2018-09-13 08:00:00 12.7 3 Sur 4 Sur 0 -- -- 85
2018-09-13 07:00:00 13.3 0 Calma 5 Sur 0 -- -- 82
2018-09-13 06:00:00 14.2 3 Sur 6 Sur 0 -- -- 80
2018-09-13 05:00:00 14.7 3 Sur 6 Sudeste 0 -- -- 77
2018-09-13 04:00:00 15.5 4 Sur 6 Sur 0 -- -- 75
2018-09-13 03:00:00 16.5 3 Sur 7 Sudoeste 0 -- -- 71
2018-09-13 02:00:00 17.3 3 Sur 8 Sur 0 -- -- 70
2018-09-13 01:00:00 17.8 5 Sur 9 Sur 0 -- -- 65
2018-09-13 00:00:00 18.6 5 Sur 10 Sur 0 -- -- 63
2018-09-12 23:00:00 19.3 4 Sur 8 Sur 0 -- -- 62
2018-09-12 22:00:00 19 4 Sur 5 Sur 0 -- -- 61
2018-09-12 21:00:00 21.5 2 Sur 4 Norte 0 -- -- 55
2018-09-12 20:00:00 26.4 4 Norte 14 Norte 0 -- -- 36
2018-09-12 19:00:00 28 5 Norte 17 Norte 0 -- -- 31
2018-09-12 18:00:00 28.1 6 Norte 17 Norte 0 -- -- 27
2018-09-12 17:00:00 28.3 12 Norte 19 Norte 0 -- -- 28
2018-09-12 16:00:00 27.7 8 Norte 19 Norte 0 -- -- 31
2018-09-12 15:00:00 27.2 9 Norte 20 Noroeste 0 -- -- 34
2018-09-12 14:00:00 27 6 Oeste 18 Noroeste 0 -- -- 37
2018-09-12 13:00:00 26 6 Noroeste 18 Oeste 0 -- -- 39
2018-09-12 12:00:00 24.8 6 Oeste 12 Noroeste 0 -- -- 42
2018-09-12 11:00:00 22.9 6 Sudoeste 11 Oeste 0 -- -- 45
2018-09-12 10:00:00 19.9 4 Sudeste 8 Sur 0 -- -- 62
2018-09-12 09:00:00 14.5 3 Sur 6 Sur 0 -- -- 84
2018-09-12 08:00:00 13.2 0 Calma 3 Sur 0 -- -- 82
2018-09-12 07:00:00 14.9 0 Calma 6 Norte 0 -- -- 74
2018-09-12 06:00:00 15.4 2 Sur 8 Sur 0 -- -- 72
2018-09-12 05:00:00 15.6 4 Sur 8 Sur 0 -- -- 71
2018-09-12 04:00:00 15.6 6 Sudoeste 11 Sudoeste 0 -- -- 71
2018-09-12 03:00:00 15.7 0 Calma 5 Sur 0 -- -- 72
2018-09-12 02:00:00 16.5 3 Sudeste 5 Sudeste 0 -- -- 70
2018-09-12 01:00:00 18.6 3 Sudoeste 15 Sur 0 -- -- 61
2018-09-12 00:00:00 18.8 0 Calma 15 Sur 0 -- -- 59
2018-09-11 23:00:00 19.6 5 Sur 12 Sur 0 -- -- 57
2018-09-11 22:00:00 20.5 7 Sur 11 Sur 0 -- -- 53
2018-09-11 21:00:00 22.7 4 Sur 13 Este 0 -- -- 45
2018-09-11 20:00:00 25.9 6 Este 17 Nordeste 0 -- -- 33
2018-09-11 19:00:00 27.3 7 Este 22 Este 0 -- -- 30
2018-09-11 18:00:00 27.5 9 Nordeste 22 Este 0 -- -- 30
2018-09-11 17:00:00 27.7 10 Este 22 Este 0 -- -- 31
2018-09-11 16:00:00 27.4 14 Nordeste 26 Nordeste 0 -- -- 33
2018-09-11 15:00:00 25.8 12 Este 27 Nordeste 0 -- -- 38
2018-09-11 14:00:00 26.7 8 Este 22 Este 0 -- -- 34
2018-09-11 13:00:00 25.1 8 Norte 15 Norte 0 -- -- 43
2018-09-11 12:00:00 23.2 8 Norte 15 Norte 0 -- -- 53
2018-09-11 11:00:00 20.8 4 Norte 9 Nordeste 0 -- -- 59
2018-09-11 10:00:00 17.4 3 Norte 5 Noroeste 0 -- -- 75
2018-09-11 09:00:00 13.4 0 Calma 4 Sur 0 -- -- 93
2018-09-11 08:00:00 11.7 0 Calma 5 Sur 0 -- -- 90
2018-09-11 07:00:00 12.1 3 Sur 6 Sudoeste 0 -- -- 89
2018-09-11 06:00:00 12.3 2 Sur 6 Sudeste 0 -- -- 89
2018-09-11 05:00:00 12.8 0 Calma 4 Sur 0 -- -- 88
2018-09-11 04:00:00 13.5 0 Calma 5 Sudeste 0 -- -- 86
2018-09-11 03:00:00 14.1 2 Sur 4 Sudeste 0 -- -- 84
2018-09-11 02:00:00 15.8 0 Calma 5 Sur 0 -- -- 81
2018-09-11 01:00:00 16.7 3 Sur 5 Sur 0 -- -- 75
2018-09-11 00:00:00 18 0 Calma 6 Sudeste 0 -- -- 74
2018-09-10 23:00:00 18.1 0 Calma 4 Sur 0 -- -- 72
2018-09-10 22:00:00 19.5 3 Sur 4 Sur 0 -- -- 61
2018-09-10 21:00:00 22 3 Norte 13 Nordeste 0 -- -- 47
2018-09-10 20:00:00 24.5 7 Nordeste 18 Nordeste 0 -- -- 40
2018-09-10 19:00:00 25.6 9 Nordeste 22 Norte 0 -- -- 36
2018-09-10 18:00:00 25.7 11 Nordeste 24 Nordeste 0 -- -- 36
2018-09-10 17:00:00 25.5 10 Norte 18 Nordeste 0 -- -- 37
2018-09-10 16:00:00 25 9 Nordeste 19 Norte 0 -- -- 36
2018-09-10 15:00:00 23.8 10 Nordeste 20 Nordeste 0 -- -- 43
2018-09-10 14:00:00 22.2 10 Norte 21 Norte 0 -- -- 54
2018-09-10 13:00:00 19.8 9 Nordeste 17 Norte 0 -- -- 67
2018-09-10 12:00:00 17.1 9 Norte 15 Norte 0 -- -- 83
2018-09-10 11:00:00 15.2 6 Norte 11 Norte 0 -- -- 86
2018-09-10 10:00:00 14 4 Norte 10 Norte 0 -- -- 88
2018-09-10 09:00:00 11.3 2 Norte 4 Norte 0 -- -- 97
2018-09-10 08:00:00 10 0 Calma 4 Sudeste 0 -- -- 95
2018-09-10 07:00:00 10.5 0 Calma 4 Sur 0 -- -- 93
2018-09-10 06:00:00 10.8 3 Sur 4 Sur 0 -- -- 92
2018-09-10 05:00:00 11.5 3 Sur 5 Sur 0 -- -- 91
2018-09-10 04:00:00 12.5 0 Calma 4 Norte 0 -- -- 86
2018-09-10 03:00:00 13.6 0 Calma 9 Norte 0 -- -- 84
2018-09-10 02:00:00 14.4 3 Noroeste 5 Norte 0 -- -- 81
2018-09-10 01:00:00 15.4 4 Nordeste 8 Este 0 -- -- 74
2018-09-10 00:00:00 15.8 2 Sudeste 5 Sudeste 0 -- -- 73
2018-09-09 23:00:00 16.2 3 Este 8 Sudeste 0 -- -- 67
2018-09-09 22:00:00 16.5 3 Sur 5 Sudeste 0 -- -- 70
2018-09-09 21:00:00 20.5 0 Calma 10 Norte 0 -- -- 58
2018-09-09 20:00:00 23.2 4 Nordeste 15 Nordeste 0 -- -- 43
2018-09-09 19:00:00 23.1 7 Norte 19 Nordeste 0 -- -- 39
2018-09-09 18:00:00 24.9 4 Este 19 Nordeste 0 -- -- 34
2018-09-09 17:00:00 24.6 8 Norte 15 Nordeste 0 -- -- 35
2018-09-09 16:00:00 24.5 10 Norte 19 Noroeste 0 -- -- 37
2018-09-09 15:00:00 23.8 6 Norte 16 Norte 0 -- -- 43
2018-09-09 14:00:00 22.9 5 Noroeste 16 Norte 0 -- -- 44
2018-09-09 13:00:00 21.3 5 Noroeste 14 Oeste 0 -- -- 51
2018-09-09 12:00:00 20.2 6 Noroeste 12 Oeste 0 -- -- 53
2018-09-09 11:00:00 18.2 5 Sudoeste 9 Sudoeste 0 -- -- 67
2018-09-09 10:00:00 16 0 Calma 3 Nordeste 0 -- -- 85
2018-09-09 09:00:00 11.6 0 Calma 6 Sur 0 -- -- 94
2018-09-09 08:00:00 10.4 4 Sur 7 Sur 0 -- -- 95
2018-09-09 07:00:00 10.9 3 Sur 6 Sur 0 -- -- 95
2018-09-09 06:00:00 11.2 0 Calma 10 Sudeste 0 -- -- 93
2018-09-09 05:00:00 11.2 3 Sur 8 Sur 0 -- -- 93
2018-09-09 04:00:00 11.9 5 Norte 12 Norte 0 -- -- 91
2018-09-09 03:00:00 12.5 7 Noroeste 15 Sur 0 -- -- 88
2018-09-09 02:00:00 12.5 9 Sudeste 27 Sudoeste 2.4 -- -- 87
2018-09-09 01:00:00 13.3 22 Sudoeste 53 Sudoeste 2.8 -- -- 79
2018-09-09 00:00:00 14.5 19 Sudoeste 36 Sudoeste 0.4 -- -- 78
2018-09-08 23:00:00 14.8 18 Sudoeste 32 Sudoeste 0 -- -- 83
2018-09-08 22:00:00 14.3 6 Sur 28 Oeste 0 -- -- 88
2018-09-08 21:00:00 14.4 4 Sudeste 23 Oeste 20.8 -- -- 90
2018-09-08 20:00:00 16.6 6 Sur 30 Sudoeste 3.6 -- -- 75
2018-09-08 19:00:00 21 0 Calma 27 Sudeste 0 -- -- 58
2018-09-08 18:00:00 22.4 15 Este 32 Este 0 -- -- 54
2018-09-08 17:00:00 24.6 12 Este 24 Este 0 -- -- 44
2018-09-08 16:00:00 22.4 7 Nordeste 17 Sudeste 0 -- -- 54
2018-09-08 15:00:00 20.6 13 Sudeste 25 Sudeste 0 -- -- 54
2018-09-08 14:00:00 20.6 0 Calma 17 Sudoeste 0 -- -- 62
2018-09-08 13:00:00 19.6 4 Nordeste 17 Sur 0 -- -- 73
2018-09-08 12:00:00 18.9 4 Este 13 Este 0.8 -- -- 81
2018-09-08 11:00:00 17.1 4 Sur 22 Sudoeste 3.2 -- -- 87
2018-09-08 10:00:00 17.2 4 Noroeste 8 Noroeste 0 -- -- 76
2018-09-08 09:00:00 14.1 0 Calma 7 Oeste 0 -- -- 90
2018-09-08 08:00:00 13.8 0 Calma 12 Sudoeste 0 -- -- 90
2018-09-08 07:00:00 13 4 Sur 7 Sudoeste 0 -- -- 92
2018-09-08 06:00:00 13.6 3 Sur 9 Noroeste 0 -- -- 90
2018-09-08 05:00:00 13.1 4 Noroeste 7 Norte 0 -- -- 89
2018-09-08 04:00:00 14.6 3 Sur 10 Norte 0 -- -- 85
2018-09-08 03:00:00 15.4 2 Norte 5 Sudeste 0 -- -- 81
2018-09-08 02:00:00 16.7 2 Este 6 Norte 0.2 -- -- 76
2018-09-08 01:00:00 18.1 4 Norte 19 Sudoeste 0 -- -- 63
2018-09-08 00:00:00 18.6 9 Nordeste 16 Nordeste 0 -- -- 52
2018-09-07 23:00:00 18.2 3 Norte 8 Norte 0 -- -- 58
2018-09-07 22:00:00 19.2 0 Calma 13 Norte 0 -- -- 54
2018-09-07 21:00:00 20.3 14 Norte 24 Norte 0 -- -- 49
2018-09-07 20:00:00 22.7 12 Noroeste 32 Noroeste 0 -- -- 44
2018-09-07 19:00:00 24.2 9 Norte 23 Norte 0 -- -- 37
2018-09-07 18:00:00 24.9 10 Norte 20 Nordeste 0 -- -- 36
2018-09-07 17:00:00 25.4 8 Nordeste 21 Nordeste 0 -- -- 37
2018-09-07 16:00:00 25.5 6 Norte 20 Nordeste 0 -- -- 38
2018-09-07 15:00:00 24.8 8 Nordeste 19 Nordeste 0 -- -- 40
2018-09-07 14:00:00 23.7 8 Norte 18 Nordeste 0 -- -- 44
2018-09-07 13:00:00 22.5 8 Norte 17 Nordeste 0 -- -- 46
2018-09-07 12:00:00 19.8 7 Nordeste 15 Norte 0 -- -- 61
2018-09-07 11:00:00 17.2 6 Nordeste 11 Nordeste 0 -- -- 73
2018-09-07 10:00:00 14.5 6 Nordeste 9 Nordeste 0 -- -- 83
2018-09-07 09:00:00 12.1 3 Nordeste 8 Norte 0 -- -- 93
2018-09-07 08:00:00 11.3 4 Norte 8 Norte 0 -- -- 93
2018-09-07 07:00:00 11.9 4 Norte 6 Norte 0 -- -- 90
2018-09-07 06:00:00 12.7 5 Nordeste 10 Nordeste 0 -- -- 87
2018-09-07 05:00:00 13.7 5 Norte 17 Nordeste 0 -- -- 84
2018-09-07 04:00:00 14.8 10 Nordeste 23 Nordeste 0 -- -- 78
2018-09-07 03:00:00 15.5 14 Nordeste 23 Nordeste 0 -- -- 75
2018-09-07 02:00:00 16.3 13 Nordeste 22 Nordeste 0 -- -- 72
2018-09-07 01:00:00 16.9 10 Nordeste 21 Este 0 -- -- 70
2018-09-07 00:00:00 16.3 5 Nordeste 12 Este 0 -- -- 85
2018-09-06 23:00:00 17 7 Sur 20 Sudeste 0.2 -- -- 78
2018-09-06 22:00:00 18 9 Sur 15 Sur 0 -- -- 67
2018-09-06 21:00:00 19.4 8 Sudoeste 22 Sudoeste 0 -- -- 61
2018-09-06 20:00:00 22 6 Norte 19 Norte 0 -- -- 43
2018-09-06 19:00:00 23.1 9 Nordeste 22 Nordeste 0 -- -- 41
2018-09-06 18:00:00 23.6 11 Norte 27 Nordeste 0 -- -- 41
2018-09-06 17:00:00 23.7 10 Nordeste 23 Nordeste 0 -- -- 42
2018-09-06 16:00:00 22.8 11 Nordeste 21 Noroeste 0 -- -- 48
2018-09-06 15:00:00 22.2 10 Nordeste 21 Nordeste 0 -- -- 49
2018-09-06 14:00:00 20.9 9 Nordeste 21 Nordeste 0 -- -- 59
2018-09-06 13:00:00 18.5 8 Nordeste 17 Nordeste 0 -- -- 71
2018-09-06 12:00:00 16.1 8 Nordeste 15 Nordeste 0 -- -- 83
2018-09-06 11:00:00 15 4 Norte 9 Norte 0 -- -- 90
2018-09-06 10:00:00 14.3 0 Calma 9 Norte 0 -- -- 92
2018-09-06 09:00:00 14.1 3 Nordeste 8 Norte 0 -- -- 93
2018-09-06 08:00:00 14.2 5 Norte 8 Norte 0 -- -- 93
2018-09-06 07:00:00 14.3 2 Este 10 Norte 0 -- -- 93
2018-09-06 06:00:00 14.6 5 Norte 8 Norte 0 -- -- 91
2018-09-06 05:00:00 15.4 2 Norte 6 Norte 0.2 -- -- 88
2018-09-06 04:00:00 16 0 Calma 5 Sudeste 0 -- -- 83
2018-09-06 03:00:00 16 0 Calma 3 Sur 0 -- -- 83
2018-09-06 02:00:00 16.1 2 Nordeste 12 Noroeste 0 -- -- 80
2018-09-06 01:00:00 16.5 3 Norte 10 Sudeste 0 -- -- 77
2018-09-06 00:00:00 17.1 6 Sur 14 Sudeste 0 -- -- 72
2018-09-05 23:00:00 17.3 7 Sudeste 14 Sudeste 0 -- -- 71
2018-09-05 22:00:00 18.1 6 Sudeste 14 Este 0 -- -- 68
2018-09-05 21:00:00 19.1 4 Norte 18 Nordeste 0 -- -- 61
2018-09-05 20:00:00 20.5 10 Norte 25 Oeste 0 -- -- 58
2018-09-05 19:00:00 22.3 12 Oeste 36 Oeste 0 -- -- 48
2018-09-05 18:00:00 23.8 18 Oeste 34 Sudoeste 0 -- -- 44
2018-09-05 17:00:00 23.7 10 Oeste 29 Sudoeste 0 -- -- 41
2018-09-05 16:00:00 23.4 14 Oeste 28 Oeste 0 -- -- 46
2018-09-05 15:00:00 22.8 14 Oeste 26 Sudoeste 0 -- -- 48
2018-09-05 14:00:00 21.9 6 Sudoeste 21 Oeste 0 -- -- 50
2018-09-05 13:00:00 21.8 9 Sudoeste 19 Oeste 0 -- -- 55
2018-09-05 12:00:00 19.6 8 Sudoeste 18 Oeste 0 -- -- 60
2018-09-05 11:00:00 19.6 11 Sudoeste 19 Sudoeste 0 -- -- 63
2018-09-05 10:00:00 17.9 8 Sudoeste 15 Sur 0 -- -- 70
2018-09-05 09:00:00 15.1 8 Sudoeste 14 Sudoeste 0 -- -- 84
2018-09-05 08:00:00 12.7 5 Sudoeste 9 Sudoeste 0 -- -- 93
2018-09-05 07:00:00 12.3 4 Sur 6 Sudoeste 0 -- -- 93
2018-09-05 06:00:00 13 0 Calma 4 Sur 0 -- -- 90
2018-09-05 05:00:00 13.7 0 Calma 8 Sudeste 0 -- -- 88
2018-09-05 04:00:00 14 3 Sur 9 Sudoeste 0 -- -- 88
2018-09-05 03:00:00 14.6 3 Oeste 9 Sudeste 0 -- -- 85
2018-09-05 02:00:00 14.9 4 Sur 10 Sudoeste 0 -- -- 85
2018-09-05 01:00:00 15 4 Sur 8 Sur 0 -- -- 87
2018-09-05 00:00:00 15.8 2 Sur 6 Sudoeste 0 -- -- 86
2018-09-04 23:00:00 16.5 2 Sudoeste 11 Sudoeste 0 -- -- 83
2018-09-04 22:00:00 16.8 3 Sur 5 Sur 0.2 -- -- 85
2018-09-04 21:00:00 18 3 Sur 6 Sur 0 -- -- 81
2018-09-04 20:00:00 18.7 6 Sur 18 Sudoeste 0.2 -- -- 76
2018-09-04 19:00:00 19.1 6 Sur 18 Este 1.8 -- -- 77
2018-09-04 18:00:00 22.9 7 Sudeste 31 Sudeste 0 -- -- 42
2018-09-04 17:00:00 26.9 5 Noroeste 22 Oeste 0 -- -- 33
2018-09-04 16:00:00 26.2 8 Oeste 26 Oeste 0 -- -- 36
2018-09-04 15:00:00 25.6 11 Noroeste 24 Oeste 0 -- -- 37
2018-09-04 14:00:00 24.7 8 Oeste 22 Oeste 0 -- -- 44
2018-09-04 13:00:00 23 9 Oeste 21 Oeste 0 -- -- 51
2018-09-04 12:00:00 20.7 4 Noroeste 8 Norte 0 -- -- 67
2018-09-04 11:00:00 17.1 3 Norte 7 Nordeste 0 -- -- 78
2018-09-04 10:00:00 14.6 3 Norte 8 Norte 0 -- -- 83
2018-09-04 09:00:00 13.1 0 Calma 5 Nordeste 0 -- -- 95
2018-09-04 08:00:00 12.5 3 Sudoeste 6 Sudoeste 0 -- -- 93
2018-09-04 07:00:00 13.1 0 Calma 6 Sudoeste 0 -- -- 93
2018-09-04 06:00:00 13.6 0 Calma 5 Sur 0 -- -- 93
2018-09-04 05:00:00 14.1 2 Noroeste 6 Norte 0 -- -- 94
2018-09-04 04:00:00 14.9 2 Sudoeste 5 Sur 0 -- -- 92
2018-09-04 03:00:00 15.3 0 Calma 9 Noroeste 0 -- -- 93
2018-09-04 02:00:00 15.7 2 Sudeste 9 Sur 0 -- -- 92
2018-09-04 01:00:00 15.7 5 Sur 9 Sur 0 -- -- 93
2018-09-04 00:00:00 15.7 5 Sur 8 Sur 0 -- -- 94
2018-09-03 23:00:00 16.1 2 Sur 13 Sudoeste 0 -- -- 91
2018-09-03 22:00:00 16.7 9 Sudoeste 14 Sudoeste 0 -- -- 88
2018-09-03 21:00:00 15.7 7 Sudoeste 11 Sudoeste 0 -- -- 89
2018-09-03 20:00:00 15.4 8 Sudoeste 26 Sudeste 12 -- -- 83
2018-09-03 19:00:00 19.6 7 Oeste 34 Sur 10 -- -- 77
2018-09-03 18:00:00 27.3 2 Oeste 12 Nordeste 0 -- -- 39
2018-09-03 17:00:00 28.2 5 Nordeste 17 Norte 0 -- -- 39
2018-09-03 16:00:00 27.2 5 Sur 15 Nordeste 0 -- -- 44
2018-09-03 15:00:00 26.3 8 Noroeste 21 Noroeste 0 -- -- 45
2018-09-03 14:00:00 25.1 3 Norte 16 Norte 0 -- -- 52
2018-09-03 13:00:00 24.2 5 Norte 15 Norte 0 -- -- 55
2018-09-03 12:00:00 23.1 12 Norte 25 Norte 0 -- -- 56
2018-09-03 11:00:00 22.6 12 Oeste 28 Oeste 0 -- -- 66
2018-09-03 10:00:00 21.2 8 Oeste 16 Sudoeste 0 -- -- 65
2018-09-03 09:00:00 19.5 5 Sur 13 Sudeste 0 -- -- 65
2018-09-03 08:00:00 17.1 4 Sur 10 Sur 0 -- -- 74
2018-09-03 07:00:00 17.7 3 Sudeste 11 Sur 0.2 -- -- 75
2018-09-03 06:00:00 18.3 4 Sudoeste 10 Sudeste 0 -- -- 63
2018-09-03 05:00:00 18.1 3 Sudeste 9 Sudeste 0 -- -- 67
2018-09-03 04:00:00 18 3 Sudeste 8 Norte 0 -- -- 76
2018-09-03 03:00:00 19.7 4 Noroeste 8 Noroeste 0 -- -- 66
2018-09-03 02:00:00 20.3 5 Sur 11 Sur 0 -- -- 66
2018-09-03 01:00:00 20.3 4 Este 52 Sudoeste 1.2 -- -- 69
2018-09-03 00:00:00 21.8 3 Sur 7 Sur 0 -- -- 41
2018-09-02 23:00:00 22.6 6 Sur 10 Sur 0 -- -- 39
2018-09-02 22:00:00 23.6 3 Sudeste 9 Sudoeste 0 -- -- 36
2018-09-02 21:00:00 27.9 5 Sudoeste 15 Sudoeste 0 -- -- 28
2018-09-02 20:00:00 30.9 10 Sudoeste 23 Oeste 0 -- -- 23
2018-09-02 19:00:00 32 10 Oeste 27 Oeste 0 -- -- 22
2018-09-02 18:00:00 32.5 13 Oeste 35 Sudoeste 0 -- -- 20
2018-09-02 17:00:00 33 23 Sudoeste 37 Sudoeste 0 -- -- 19
2018-09-02 16:00:00 32.8 18 Sudoeste 36 Oeste 0 -- -- 18
2018-09-02 15:00:00 32.5 12 Sudoeste 32 Sudoeste 0 -- -- 16
2018-09-02 14:00:00 31.9 12 Oeste 26 Oeste 0 -- -- 16
2018-09-02 13:00:00 30 10 Oeste 22 Oeste 0 -- -- 27
2018-09-02 12:00:00 28.6 7 Oeste 16 Oeste 0 -- -- 31
2018-09-02 11:00:00 25.3 5 Norte 10 Norte 0 -- -- 33
2018-09-02 10:00:00 21.3 3 Sudoeste 7 Oeste 0 -- -- 42
2018-09-02 09:00:00 15.4 0 Calma 5 Sur 0 -- -- 59
2018-09-02 08:00:00 14.4 0 Calma 8 Sur 0 -- -- 60
2018-09-02 07:00:00 14.8 3 Sur 6 Sur 0 -- -- 59
2018-09-02 06:00:00 15.5 3 Sudoeste 8 Sur 0 -- -- 56
2018-09-02 05:00:00 16.7 2 Sur 5 Sur 0 -- -- 53
2018-09-02 04:00:00 16.9 4 Sudoeste 11 Sudoeste 0 -- -- 51
2018-09-02 03:00:00 16.4 0 Calma 6 Este 0 -- -- 53
2018-09-02 02:00:00 18.1 2 Nordeste 5 Norte 0 -- -- 46
2018-09-02 01:00:00 18.5 0 Calma 4 Sur 0 -- -- 43
2018-09-02 00:00:00 20.6 4 Sur 9 Sudeste 0 -- -- 39
2018-09-01 23:00:00 19.2 3 Sur 9 Sur 0 -- -- 43
2018-09-01 22:00:00 21.2 3 Sur 10 Sudeste 0 -- -- 37
2018-09-01 21:00:00 26.5 4 Este 11 Norte 0 -- -- 27
2018-09-01 20:00:00 29.3 9 Norte 18 Norte 0 -- -- 24
2018-09-01 19:00:00 30.5 13 Norte 23 Norte 0 -- -- 23
2018-09-01 18:00:00 31.2 10 Norte 22 Norte 0 -- -- 23
2018-09-01 17:00:00 31.4 9 Noroeste 26 Norte 0 -- -- 22
2018-09-01 16:00:00 31.2 12 Norte 23 Norte 0 -- -- 23
2018-09-01 15:00:00 30.5 9 Norte 18 Norte 0 -- -- 25
2018-09-01 14:00:00 29.6 10 Nordeste 22 Nordeste 0 -- -- 29
2018-09-01 13:00:00 27.7 12 Nordeste 21 Nordeste 0 -- -- 33
2018-09-01 12:00:00 25.9 10 Nordeste 19 Norte 0 -- -- 38
2018-09-01 11:00:00 23 9 Nordeste 14 Norte 0 -- -- 46
2018-09-01 10:00:00 18.2 4 Norte 8 Norte 0 -- -- 61
2018-09-01 09:00:00 12.8 0 Calma 3 Sudeste 0 -- -- 75
2018-09-01 08:00:00 11.6 0 Calma 3 Oeste 0 -- -- 73
2018-09-01 07:00:00 12.7 0 Calma 7 Norte 0 -- -- 69
2018-09-01 06:00:00 14.4 4 Norte 6 Norte 0 -- -- 65
2018-09-01 05:00:00 15.9 0 Calma 5 Norte 0 -- -- 58
2018-09-01 04:00:00 17.5 4 Nordeste 8 Nordeste 0 -- -- 54
2018-09-01 03:00:00 19 5 Este 13 Nordeste 0 -- -- 51
2018-09-01 02:00:00 18.8 7 Este 12 Este 0 -- -- 50
2018-09-01 01:00:00 18.3 4 Nordeste 8 Este 0 -- -- 46
2018-09-01 00:00:00 18.5 4 Nordeste 7 Este 0 -- -- 44
2018-08-31 23:00:00 19.7 2 Sudeste 4 Sudeste 0 -- -- 40
2018-08-31 22:00:00 22 2 Este 6 Nordeste 0 -- -- 35
2018-08-31 21:00:00 25.1 5 Nordeste 18 Norte 0 -- -- 30
2018-08-31 20:00:00 28 10 Nordeste 23 Norte 0 -- -- 25
2018-08-31 19:00:00 29.2 15 Norte 26 Noroeste 0 -- -- 26
2018-08-31 18:00:00 29.9 12 Norte 24 Norte 0 -- -- 26
2018-08-31 17:00:00 30.3 13 Norte 23 Noroeste 0 -- -- 26
2018-08-31 16:00:00 29.8 6 Nordeste 24 Norte 0 -- -- 28
2018-08-31 15:00:00 29.1 8 Norte 21 Norte 0 -- -- 30
2018-08-31 14:00:00 28.3 10 Nordeste 25 Norte 0 -- -- 33
2018-08-31 13:00:00 26.1 12 Nordeste 22 Nordeste 0 -- -- 39
2018-08-31 12:00:00 23.9 12 Nordeste 19 Este 0 -- -- 46
2018-08-31 11:00:00 20.5 7 Nordeste 12 Nordeste 0 -- -- 57
2018-08-31 10:00:00 16.6 6 Norte 11 Nordeste 0 -- -- 69
2018-08-31 09:00:00 12 0 Calma 4 Sudeste 0 -- -- 78
2018-08-31 08:00:00 10.6 0 Calma 4 Sudoeste 0 -- -- 78
2018-08-31 07:00:00 11.8 0 Calma 4 Sudeste 0 -- -- 72
2018-08-31 06:00:00 12.8 2 Sudeste 6 Sur 0 -- -- 69
2018-08-31 05:00:00 12.9 0 Calma 6 Oeste 0 -- -- 65
2018-08-31 04:00:00 13.3 4 Noroeste 8 Norte 0 -- -- 61
2018-08-31 03:00:00 13.7 4 Sur 6 Sur 0 -- -- 63
2018-08-31 02:00:00 14.5 0 Calma 4 Sur 0 -- -- 60
2018-08-31 01:00:00 15.2 0 Calma 5 Sur 0 -- -- 55
2018-08-31 00:00:00 16.4 3 Sur 6 Sur 0 -- -- 53
2018-08-30 23:00:00 17.5 3 Sur 6 Sur 0 -- -- 50
2018-08-30 22:00:00 19.6 4 Sur 4 Sur 0 -- -- 45
2018-08-30 21:00:00 25 2 Norte 17 Norte 0 -- -- 32
2018-08-30 20:00:00 27.8 9 Norte 23 Norte 0 -- -- 29
2018-08-30 19:00:00 28.9 10 Norte 22 Norte 0 -- -- 28
2018-08-30 18:00:00 29.6 11 Norte 20 Noroeste 0 -- -- 27
2018-08-30 17:00:00 29.6 8 Norte 23 Norte 0 -- -- 27
2018-08-30 16:00:00 29.3 9 Noroeste 24 Oeste 0 -- -- 28
2018-08-30 15:00:00 28.4 12 Norte 21 Noroeste 0 -- -- 30
2018-08-30 14:00:00 26.9 5 Norte 15 Norte 0 -- -- 37
2018-08-30 13:00:00 24.4 7 Nordeste 15 Nordeste 0 -- -- 47
2018-08-30 12:00:00 21.8 5 Nordeste 12 Nordeste 0 -- -- 55
2018-08-30 11:00:00 18.7 5 Nordeste 11 Este 0 -- -- 64
2018-08-30 10:00:00 15.9 6 Nordeste 12 Nordeste 0 -- -- 76
2018-08-30 09:00:00 11.7 2 Norte 6 Norte 0 -- -- 86
2018-08-30 08:00:00 10 0 Calma 5 Sur 0 -- -- 85
2018-08-30 07:00:00 10.7 0 Calma 4 Sur 0 -- -- 82
2018-08-30 06:00:00 11.6 0 Calma 5 Sur 0 -- -- 78
2018-08-30 05:00:00 11.8 3 Sur 5 Sudeste 0 -- -- 77
2018-08-30 04:00:00 12.9 0 Calma 5 Sur 0 -- -- 71
2018-08-30 03:00:00 13.9 0 Calma 6 Sur 0 -- -- 67
2018-08-30 02:00:00 14.4 2 Sur 6 Norte 0 -- -- 61
2018-08-30 01:00:00 15.6 3 Sur 5 Norte 0 -- -- 58
2018-08-30 00:00:00 16.1 0 Calma 4 Sudeste 0 -- -- 57
2018-08-29 23:00:00 17.2 3 Sur 5 Sur 0 -- -- 55
2018-08-29 22:00:00 20.6 0 Calma 7 Norte 0 -- -- 45
2018-08-29 21:00:00 24.2 4 Norte 17 Oeste 0 -- -- 37
2018-08-29 20:00:00 26.9 11 Norte 23 Norte 0 -- -- 31
2018-08-29 19:00:00 27.8 12 Norte 21 Norte 0 -- -- 29
2018-08-29 18:00:00 28.1 12 Norte 26 Norte 0 -- -- 28
2018-08-29 17:00:00 27.9 10 Nordeste 21 Norte 0 -- -- 28
2018-08-29 16:00:00 27.2 8 Norte 22 Norte 0 -- -- 33
2018-08-29 15:00:00 26.3 9 Norte 21 Norte 0 -- -- 38
2018-08-29 14:00:00 24 6 Nordeste 16 Norte 0 -- -- 48
2018-08-29 13:00:00 21.2 6 Norte 14 Norte 0 -- -- 59
2018-08-29 12:00:00 18.6 4 Nordeste 9 Nordeste 0 -- -- 70
2018-08-29 11:00:00 16.4 4 Nordeste 9 Noroeste 0 -- -- 83
2018-08-29 10:00:00 15.5 2 Este 12 Noroeste 0 -- -- 88
2018-08-29 09:00:00 15.4 4 Noroeste 8 Noroeste 0 -- -- 90
2018-08-29 08:00:00 14.4 2 Sudeste 6 Sudeste 0 -- -- 89
2018-08-29 07:00:00 12.5 2 Sur 5 Sudeste 0 -- -- 90
2018-08-29 06:00:00 12.2 0 Calma 4 Sur 0 -- -- 84
2018-08-29 05:00:00 13.3 3 Sur 5 Sur 0 -- -- 81
2018-08-29 04:00:00 14.4 4 Sur 7 Sudoeste 0 -- -- 74
2018-08-29 03:00:00 15 4 Sudoeste 7 Sudoeste 0 -- -- 73
2018-08-29 02:00:00 16.3 4 Sudoeste 10 Sudoeste 0 -- -- 64
2018-08-29 01:00:00 17.1 4 Sur 9 Sudoeste 0 -- -- 60
2018-08-29 00:00:00 18.2 4 Sudoeste 10 Sudoeste 0 -- -- 53
2018-08-28 23:00:00 20.9 6 Sudoeste 11 Sudoeste 0 -- -- 44
2018-08-28 22:00:00 22.4 7 Sudoeste 13 Sudoeste 0 -- -- 40
2018-08-28 21:00:00 24.6 5 Sudoeste 21 Sudoeste 0 -- -- 33
2018-08-28 20:00:00 26.9 14 Oeste 27 Sudoeste 0 -- -- 30
2018-08-28 19:00:00 28.1 13 Sudoeste 33 Sudoeste 0 -- -- 28
2018-08-28 18:00:00 28.5 15 Oeste 38 Sudoeste 0 -- -- 28
2018-08-28 17:00:00 29 15 Oeste 38 Oeste 0 -- -- 26
2018-08-28 16:00:00 28.8 21 Sudoeste 44 Sudoeste 0 -- -- 28
2018-08-28 15:00:00 29 17 Sudoeste 34 Sudoeste 0 -- -- 21
2018-08-28 14:00:00 27.7 19 Sudoeste 35 Oeste 0 -- -- 30
2018-08-28 13:00:00 26.3 12 Sudoeste 30 Sudoeste 0 -- -- 45
2018-08-28 12:00:00 25.2 14 Sudoeste 26 Sudoeste 0 -- -- 46
2018-08-28 11:00:00 23.7 14 Sudoeste 25 Sudoeste 0 -- -- 51
2018-08-28 10:00:00 22 13 Sudoeste 26 Sudoeste 0 -- -- 55
2018-08-28 09:00:00 17.8 0 Calma 6 Sur 0 -- -- 65
2018-08-28 08:00:00 17.3 4 Sudeste 17 Sudoeste 0 -- -- 61
2018-08-28 07:00:00 20.3 12 Sudoeste 25 Sudoeste 0 -- -- 53
2018-08-28 06:00:00 19.5 3 Sudoeste 15 Sudeste 0 -- -- 51
2018-08-28 05:00:00 20.9 4 Sur 20 Sudoeste 0 -- -- 41
2018-08-28 04:00:00 16.5 6 Sur 13 Sur 0 -- -- 45
2018-08-28 03:00:00 15.7 5 Sur 10 Sudeste 0 -- -- 48
2018-08-28 02:00:00 15.9 2 Sur 8 Oeste 0 -- -- 48
2018-08-28 01:00:00 16.9 3 Sudeste 9 Sur 0 -- -- 46
2018-08-28 00:00:00 18.2 5 Sur 8 Sur 0 -- -- 42
2018-08-27 23:00:00 19.7 3 Sur 9 Sur 0 -- -- 39
2018-08-27 22:00:00 21.4 4 Sur 6 Sur 0 -- -- 36
2018-08-27 21:00:00 27.5 3 Este 12 Nordeste 0 -- -- 25
2018-08-27 20:00:00 30.7 4 Norte 14 Sudeste 0 -- -- 20
2018-08-27 19:00:00 31 8 Nordeste 43 Este 0 -- -- 20
2018-08-27 18:00:00 28.8 23 Este 62 Nordeste 0 -- -- 22
2018-08-27 17:00:00 29.8 18 Sudoeste 35 Sudoeste 0 -- -- 20
2018-08-27 16:00:00 32.9 12 Sudoeste 27 Oeste 0 -- -- 16
2018-08-27 15:00:00 32.8 9 Noroeste 26 Sudoeste 0 -- -- 15
2018-08-27 14:00:00 31.7 10 Sudoeste 28 Sur 0 -- -- 16
2018-08-27 13:00:00 30.6 9 Sudoeste 24 Sudoeste 0 -- -- 17
2018-08-27 12:00:00 29 6 Oeste 16 Oeste 0 -- -- 22
2018-08-27 11:00:00 25.6 2 Oeste 7 Norte 0 -- -- 28
2018-08-27 10:00:00 21.2 0 Calma 2 Oeste 0 -- -- 39
2018-08-27 09:00:00 13.4 0 Calma 4 Sur 0 -- -- 61
2018-08-27 08:00:00 10.5 2 Sur 5 Sur 0 -- -- 66
2018-08-27 07:00:00 11 3 Sur 6 Sudeste 0 -- -- 61
2018-08-27 06:00:00 11.3 3 Sur 4 Sur 0 -- -- 60
2018-08-27 05:00:00 12 2 Sur 5 Sur 0 -- -- 58
2018-08-27 04:00:00 13 4 Sur 6 Sur 0 -- -- 54
2018-08-27 03:00:00 13.7 4 Sur 5 Sur 0 -- -- 50
2018-08-27 02:00:00 15.4 4 Sur 6 Sur 0 -- -- 45
2018-08-27 01:00:00 16.2 0 Calma 8 Sudeste 0 -- -- 44
2018-08-27 00:00:00 17.4 6 Sur 10 Sur 0 -- -- 42
2018-08-26 23:00:00 18.6 4 Sur 8 Sur 0 -- -- 39
2018-08-26 22:00:00 20.7 5 Sur 7 Sur 0 -- -- 41
2018-08-26 21:00:00 25.7 0 Calma 12 Norte 0 -- -- 31
2018-08-26 20:00:00 28.4 12 Norte 22 Norte 0 -- -- 26
2018-08-26 19:00:00 30 11 Norte 23 Noroeste 0 -- -- 25
2018-08-26 18:00:00 30.2 11 Noroeste 27 Norte 0 -- -- 25
2018-08-26 17:00:00 29.8 15 Norte 30 Noroeste 0 -- -- 25
2018-08-26 16:00:00 29.7 10 Noroeste 22 Noroeste 0 -- -- 23
2018-08-26 15:00:00 29 6 Sudoeste 28 Norte 0 -- -- 24
2018-08-26 14:00:00 27.4 8 Oeste 16 Oeste 0 -- -- 25
2018-08-26 13:00:00 25.6 5 Nordeste 13 Norte 0 -- -- 31
2018-08-26 12:00:00 22.9 5 Nordeste 12 Nordeste 0 -- -- 38
2018-08-26 11:00:00 19.2 4 Norte 11 Norte 0 -- -- 46
2018-08-26 10:00:00 16.4 7 Norte 12 Norte 0 -- -- 55
2018-08-26 09:00:00 11.1 0 Calma 4 Sudoeste 0 -- -- 70
2018-08-26 08:00:00 8.6 3 Sur 5 Sur 0 -- -- 74
2018-08-26 07:00:00 8.8 0 Calma 4 Sur 0 -- -- 71
2018-08-26 06:00:00 9.2 3 Sur 4 Sur 0 -- -- 70
2018-08-26 05:00:00 10.2 2 Sur 3 Sur 0 -- -- 66
2018-08-26 04:00:00 11.3 0 Calma 5 Norte 0 -- -- 63
2018-08-26 03:00:00 12.1 0 Calma 3 Norte 0 -- -- 58
2018-08-26 02:00:00 12.7 0 Calma 3 Este 0 -- -- 56
2018-08-26 01:00:00 15.4 0 Calma 4 Sudeste 0 -- -- 45
2018-08-26 00:00:00 16.9 3 Sudeste 6 Este 0 -- -- 42
2018-08-25 23:00:00 16.3 3 Sudeste 9 Sur 0 -- -- 42
2018-08-25 22:00:00 18.2 0 Calma 4 Sur 0 -- -- 38
2018-08-25 21:00:00 22.9 0 Calma 14 Noroeste 0 -- -- 26
2018-08-25 20:00:00 25.5 10 Norte 18 Noroeste 0 -- -- 23
2018-08-25 19:00:00 26.5 9 Norte 18 Norte 0 -- -- 23
2018-08-25 18:00:00 26.8 9 Norte 24 Norte 0 -- -- 23
2018-08-25 17:00:00 27.2 6 Noroeste 22 Norte 0 -- -- 22
2018-08-25 16:00:00 26.4 10 Norte 19 Norte 0 -- -- 26
2018-08-25 15:00:00 25.3 8 Noroeste 19 Norte 0 -- -- 27
2018-08-25 14:00:00 24.3 8 Norte 15 Norte 0 -- -- 33
2018-08-25 13:00:00 22.2 6 Norte 13 Norte 0 -- -- 44
2018-08-25 12:00:00 19.9 5 Norte 12 Norte 0 -- -- 51
2018-08-25 11:00:00 17.6 3 Nordeste 8 Norte 0 -- -- 59
2018-08-25 10:00:00 14.4 5 Norte 10 Nordeste 0 -- -- 72
2018-08-25 09:00:00 9.8 0 Calma 5 Sur 0 -- -- 67
2018-08-25 08:00:00 8.7 0 Calma 3 Noroeste 0 -- -- 66
2018-08-25 07:00:00 9.7 3 Norte 6 Norte 0 -- -- 58
2018-08-25 06:00:00 10.9 4 Sudoeste 7 Sur 0 -- -- 54
2018-08-25 05:00:00 13.3 3 Sur 8 Sur 0 -- -- 47
2018-08-25 04:00:00 14 4 Sur 9 Sudoeste 0 -- -- 44
2018-08-25 03:00:00 16.3 4 Sur 18 Sudoeste 0 -- -- 39
2018-08-25 02:00:00 16.9 8 Sudoeste 18 Sudoeste 0 -- -- 37
2018-08-25 01:00:00 16.2 4 Sur 22 Noroeste 0 -- -- 41
2018-08-25 00:00:00 17.1 6 Sur 10 Sur 0 -- -- 39
2018-08-24 23:00:00 16.1 5 Sur 9 Sur 0 -- -- 41
2018-08-24 22:00:00 19.3 3 Sur 5 Oeste 0 -- -- 34
2018-08-24 21:00:00 25.4 4 Noroeste 17 Norte 0 -- -- 23
2018-08-24 20:00:00 28.1 10 Norte 19 Norte 0 -- -- 18
2018-08-24 19:00:00 29.2 13 Noroeste 22 Noroeste 0 -- -- 18
2018-08-24 18:00:00 29 11 Norte 39 Norte 0 -- -- 22
2018-08-24 17:00:00 28.8 10 Norte 24 Noroeste 0 -- -- 22
2018-08-24 16:00:00 28.7 12 Noroeste 24 Norte 0 -- -- 19
2018-08-24 15:00:00 28.2 9 Noroeste 26 Norte 0 -- -- 21
2018-08-24 14:00:00 27.6 7 Nordeste 21 Norte 0 -- -- 26
2018-08-24 13:00:00 26.4 9 Nordeste 19 Norte 0 -- -- 28
2018-08-24 12:00:00 24.3 6 Nordeste 12 Nordeste 0 -- -- 40
2018-08-24 11:00:00 20.9 3 Norte 12 Noroeste 0 -- -- 57
2018-08-24 10:00:00 18.5 0 Calma 5 Norte 0 -- -- 66
2018-08-24 09:00:00 12.6 0 Calma 4 Sudeste 0 -- -- 79
2018-08-24 08:00:00 10.2 0 Calma 4 Sur 0 -- -- 81
2018-08-24 07:00:00 11 2 Sur 5 Sur 0 -- -- 78
2018-08-24 06:00:00 12.2 0 Calma 5 Sudoeste 0 -- -- 74
2018-08-24 05:00:00 12.8 3 Sudoeste 9 Sur 0 -- -- 72
2018-08-24 04:00:00 14 2 Sudeste 7 Sur 0 -- -- 66
2018-08-24 03:00:00 15.9 3 Sur 6 Sur 0 -- -- 61
2018-08-24 02:00:00 19.2 3 Sudoeste 14 Sudoeste 0 -- -- 50
2018-08-24 01:00:00 20.4 7 Sudoeste 13 Sudoeste 0 -- -- 44
2018-08-24 00:00:00 19.6 4 Sur 7 Sudoeste 0 -- -- 49
2018-08-23 23:00:00 20.6 4 Sur 10 Sudoeste 0 -- -- 47
2018-08-23 22:00:00 21.6 5 Sudeste 8 Sudeste 0 -- -- 45
2018-08-23 21:00:00 24.5 5 Sur 22 Sur 0 -- -- 39
2018-08-23 20:00:00 27.5 12 Sur 26 Sudoeste 0 -- -- 34
2018-08-23 19:00:00 30.9 12 Norte 26 Nordeste 0 -- -- 24
2018-08-23 18:00:00 31.3 14 Norte 32 Norte 0 -- -- 23
2018-08-23 17:00:00 31 13 Norte 28 Norte 0 -- -- 26
2018-08-23 16:00:00 30.9 13 Norte 29 Norte 0 -- -- 28
2018-08-23 15:00:00 30.4 11 Noroeste 21 Noroeste 0 -- -- 28
2018-08-23 14:00:00 29.6 8 Noroeste 21 Oeste 0 -- -- 31
2018-08-23 13:00:00 28.2 8 Oeste 21 Oeste 0 -- -- 35
2018-08-23 12:00:00 26.4 9 Oeste 20 Noroeste 0 -- -- 38
2018-08-23 11:00:00 24.7 7 Oeste 13 Oeste 0 -- -- 40
2018-08-23 10:00:00 21.7 0 Calma 5 Norte 0 -- -- 50
2018-08-23 09:00:00 16.7 0 Calma 8 Sudeste 0 -- -- 63
2018-08-23 08:00:00 14.4 3 Sur 6 Sur 0 -- -- 66
2018-08-23 07:00:00 14.1 3 Sur 6 Sur 0 -- -- 68
2018-08-23 06:00:00 15.3 3 Sur 8 Sur 0 -- -- 63
2018-08-23 05:00:00 16.1 0 Calma 10 Sudeste 0 -- -- 60
2018-08-23 04:00:00 16.9 5 Sur 11 Sur 0 -- -- 59
2018-08-23 03:00:00 16.7 6 Sur 10 Sudeste 0 -- -- 60
2018-08-23 02:00:00 17.7 4 Sur 10 Sur 0 -- -- 58
2018-08-23 01:00:00 19.1 5 Sur 10 Sur 0 -- -- 55
2018-08-23 00:00:00 19.9 7 Sur 13 Sudeste 0 -- -- 54